sensor_id;sensor_type;location;lat;lon;timestamp;P1;durP1;ratioP1;P2;durP2;ratioP2
14342;SDS011;7255;53.596;9.960;2022-08-19T00:02:10;16.87;;;12.30;;
14342;SDS011;7255;53.596;9.960;2022-08-19T00:04:40;11.82;;;10.60;;
14342;SDS011;7255;53.596;9.960;2022-08-19T00:07:06;14.52;;;13.00;;
14342;SDS011;7255;53.596;9.960;2022-08-19T00:09:33;13.75;;;12.45;;
14342;SDS011;7255;53.596;9.960;2022-08-19T00:11:59;14.07;;;12.00;;
14342;SDS011;7255;53.596;9.960;2022-08-19T00:14:27;20.88;;;18.45;;
14342;SDS011;7255;53.596;9.960;2022-08-19T00:16:56;23.62;;;20.33;;
14342;SDS011;7255;53.596;9.960;2022-08-19T00:19:24;22.70;;;17.80;;
14342;SDS011;7255;53.596;9.960;2022-08-19T00:21:50;20.12;;;17.92;;
14342;SDS011;7255;53.596;9.960;2022-08-19T00:24:17;20.37;;;18.05;;
14342;SDS011;7255;53.596;9.960;2022-08-19T00:26:44;22.60;;;20.20;;
14342;SDS011;7255;53.596;9.960;2022-08-19T00:29:12;25.15;;;20.10;;
14342;SDS011;7255;53.596;9.960;2022-08-19T00:31:39;21.15;;;18.95;;
14342;SDS011;7255;53.596;9.960;2022-08-19T00:34:06;24.90;;;20.20;;
14342;SDS011;7255;53.596;9.960;2022-08-19T00:36:34;24.83;;;20.37;;
14342;SDS011;7255;53.596;9.960;2022-08-19T00:39:01;25.15;;;19.90;;
14342;SDS011;7255;53.596;9.960;2022-08-19T00:41:28;26.52;;;19.50;;
14342;SDS011;7255;53.596;9.960;2022-08-19T00:43:59;30.83;;;20.77;;
14342;SDS011;7255;53.596;9.960;2022-08-19T00:46:27;26.73;;;21.48;;
14342;SDS011;7255;53.596;9.960;2022-08-19T00:48:54;28.05;;;23.58;;
14342;SDS011;7255;53.596;9.960;2022-08-19T00:51:22;29.75;;;22.80;;
14342;SDS011;7255;53.596;9.960;2022-08-19T00:53:51;30.48;;;22.90;;
14342;SDS011;7255;53.596;9.960;2022-08-19T00:56:18;27.90;;;22.95;;
14342;SDS011;7255;53.596;9.960;2022-08-19T00:58:44;28.65;;;23.30;;
14342;SDS011;7255;53.596;9.960;2022-08-19T01:01:11;27.87;;;22.35;;
14342;SDS011;7255;53.596;9.960;2022-08-19T01:03:39;27.25;;;21.98;;
14342;SDS011;7255;53.596;9.960;2022-08-19T01:06:05;25.77;;;21.73;;
14342;SDS011;7255;53.596;9.960;2022-08-19T01:08:33;25.42;;;20.67;;
14342;SDS011;7255;53.596;9.960;2022-08-19T01:11:01;26.65;;;21.35;;
14342;SDS011;7255;53.596;9.960;2022-08-19T01:13:28;22.42;;;19.30;;
14342;SDS011;7255;53.596;9.960;2022-08-19T01:15:58;23.40;;;18.65;;
14342;SDS011;7255;53.596;9.960;2022-08-19T01:18:27;24.98;;;19.35;;
14342;SDS011;7255;53.596;9.960;2022-08-19T01:20:56;21.42;;;17.65;;
14342;SDS011;7255;53.596;9.960;2022-08-19T01:23:28;20.98;;;18.60;;
14342;SDS011;7255;53.596;9.960;2022-08-19T01:26:08;24.55;;;19.15;;
14342;SDS011;7255;53.596;9.960;2022-08-19T01:28:37;20.42;;;18.27;;
14342;SDS011;7255;53.596;9.960;2022-08-19T01:31:04;22.40;;;19.08;;
14342;SDS011;7255;53.596;9.960;2022-08-19T01:33:31;25.77;;;19.33;;
14342;SDS011;7255;53.596;9.960;2022-08-19T01:36:03;21.23;;;18.65;;
14342;SDS011;7255;53.596;9.960;2022-08-19T01:38:34;22.67;;;19.15;;
14342;SDS011;7255;53.596;9.960;2022-08-19T01:41:02;25.83;;;20.02;;
14342;SDS011;7255;53.596;9.960;2022-08-19T01:43:28;23.65;;;19.05;;
14342;SDS011;7255;53.596;9.960;2022-08-19T01:45:54;23.80;;;18.48;;
14342;SDS011;7255;53.596;9.960;2022-08-19T01:48:21;23.95;;;19.60;;
14342;SDS011;7255;53.596;9.960;2022-08-19T01:50:48;28.20;;;20.60;;
14342;SDS011;7255;53.596;9.960;2022-08-19T01:53:15;28.80;;;21.98;;
14342;SDS011;7255;53.596;9.960;2022-08-19T01:55:43;26.10;;;20.73;;
14342;SDS011;7255;53.596;9.960;2022-08-19T01:58:12;28.05;;;21.45;;
14342;SDS011;7255;53.596;9.960;2022-08-19T02:00:41;29.05;;;22.02;;
14342;SDS011;7255;53.596;9.960;2022-08-19T02:03:08;34.05;;;22.80;;
14342;SDS011;7255;53.596;9.960;2022-08-19T02:05:36;30.15;;;21.52;;
14342;SDS011;7255;53.596;9.960;2022-08-19T02:08:02;28.08;;;21.02;;
14342;SDS011;7255;53.596;9.960;2022-08-19T02:10:29;26.85;;;21.23;;
14342;SDS011;7255;53.596;9.960;2022-08-19T02:12:58;28.55;;;21.58;;
14342;SDS011;7255;53.596;9.960;2022-08-19T02:15:24;32.63;;;22.25;;
14342;SDS011;7255;53.596;9.960;2022-08-19T02:17:51;28.80;;;21.25;;
14342;SDS011;7255;53.596;9.960;2022-08-19T02:20:18;29.40;;;22.10;;
14342;SDS011;7255;53.596;9.960;2022-08-19T02:22:44;33.28;;;23.10;;
14342;SDS011;7255;53.596;9.960;2022-08-19T02:25:11;31.87;;;22.42;;
14342;SDS011;7255;53.596;9.960;2022-08-19T02:27:39;25.58;;;21.65;;
14342;SDS011;7255;53.596;9.960;2022-08-19T02:30:09;30.65;;;22.33;;
14342;SDS011;7255;53.596;9.960;2022-08-19T02:32:38;31.10;;;22.33;;
14342;SDS011;7255;53.596;9.960;2022-08-19T02:35:04;31.55;;;21.27;;
14342;SDS011;7255;53.596;9.960;2022-08-19T02:37:31;30.00;;;21.48;;
14342;SDS011;7255;53.596;9.960;2022-08-19T02:40:15;35.13;;;23.52;;
14342;SDS011;7255;53.596;9.960;2022-08-19T02:42:42;34.75;;;24.45;;
14342;SDS011;7255;53.596;9.960;2022-08-19T02:45:11;39.63;;;24.90;;
14342;SDS011;7255;53.596;9.960;2022-08-19T02:47:38;33.10;;;23.90;;
14342;SDS011;7255;53.596;9.960;2022-08-19T02:50:05;34.95;;;22.25;;
14342;SDS011;7255;53.596;9.960;2022-08-19T02:52:33;32.83;;;22.10;;
14342;SDS011;7255;53.596;9.960;2022-08-19T02:55:00;39.00;;;25.98;;
14342;SDS011;7255;53.596;9.960;2022-08-19T02:57:26;39.42;;;26.02;;
14342;SDS011;7255;53.596;9.960;2022-08-19T02:59:53;44.70;;;26.35;;
14342;SDS011;7255;53.596;9.960;2022-08-19T03:02:21;43.35;;;25.10;;
14342;SDS011;7255;53.596;9.960;2022-08-19T03:04:47;39.80;;;25.15;;
14342;SDS011;7255;53.596;9.960;2022-08-19T03:07:14;42.55;;;25.30;;
14342;SDS011;7255;53.596;9.960;2022-08-19T03:09:41;39.78;;;25.42;;
14342;SDS011;7255;53.596;9.960;2022-08-19T03:12:08;45.70;;;26.15;;
14342;SDS011;7255;53.596;9.960;2022-08-19T03:14:35;37.70;;;24.55;;
14342;SDS011;7255;53.596;9.960;2022-08-19T03:17:02;44.40;;;25.65;;
14342;SDS011;7255;53.596;9.960;2022-08-19T03:19:31;41.47;;;25.48;;
14342;SDS011;7255;53.596;9.960;2022-08-19T03:21:58;43.90;;;26.15;;
14342;SDS011;7255;53.596;9.960;2022-08-19T03:24:24;35.88;;;23.80;;
14342;SDS011;7255;53.596;9.960;2022-08-19T03:26:52;34.70;;;22.02;;
14342;SDS011;7255;53.596;9.960;2022-08-19T03:29:22;39.05;;;24.60;;
14342;SDS011;7255;53.596;9.960;2022-08-19T03:31:49;39.42;;;23.12;;
14342;SDS011;7255;53.596;9.960;2022-08-19T03:34:18;41.60;;;24.40;;
14342;SDS011;7255;53.596;9.960;2022-08-19T03:36:47;40.47;;;23.52;;
14342;SDS011;7255;53.596;9.960;2022-08-19T03:39:15;44.50;;;24.95;;
14342;SDS011;7255;53.596;9.960;2022-08-19T03:41:42;41.53;;;23.98;;
14342;SDS011;7255;53.596;9.960;2022-08-19T03:44:10;42.20;;;23.17;;
14342;SDS011;7255;53.596;9.960;2022-08-19T03:46:37;40.35;;;23.05;;
14342;SDS011;7255;53.596;9.960;2022-08-19T03:49:03;40.70;;;22.55;;
14342;SDS011;7255;53.596;9.960;2022-08-19T03:51:32;35.08;;;22.05;;
14342;SDS011;7255;53.596;9.960;2022-08-19T03:54:03;31.67;;;20.95;;
14342;SDS011;7255;53.596;9.960;2022-08-19T03:56:32;37.28;;;22.45;;
14342;SDS011;7255;53.596;9.960;2022-08-19T03:58:59;39.03;;;23.27;;
14342;SDS011;7255;53.596;9.960;2022-08-19T04:01:28;42.13;;;23.15;;
14342;SDS011;7255;53.596;9.960;2022-08-19T04:03:55;34.90;;;23.48;;
14342;SDS011;7255;53.596;9.960;2022-08-19T04:06:22;40.10;;;23.40;;
14342;SDS011;7255;53.596;9.960;2022-08-19T04:08:52;43.15;;;22.90;;
14342;SDS011;7255;53.596;9.960;2022-08-19T04:11:22;44.35;;;24.77;;
14342;SDS011;7255;53.596;9.960;2022-08-19T04:13:51;41.42;;;23.35;;
14342;SDS011;7255;53.596;9.960;2022-08-19T04:16:19;47.35;;;27.08;;
14342;SDS011;7255;53.596;9.960;2022-08-19T04:18:46;52.10;;;28.73;;
14342;SDS011;7255;53.596;9.960;2022-08-19T04:21:15;44.55;;;24.98;;
14342;SDS011;7255;53.596;9.960;2022-08-19T04:23:42;47.05;;;27.77;;
14342;SDS011;7255;53.596;9.960;2022-08-19T04:26:11;43.83;;;27.75;;
14342;SDS011;7255;53.596;9.960;2022-08-19T04:28:40;44.45;;;26.83;;
14342;SDS011;7255;53.596;9.960;2022-08-19T04:31:11;54.25;;;28.83;;
14342;SDS011;7255;53.596;9.960;2022-08-19T04:33:39;50.47;;;26.62;;
14342;SDS011;7255;53.596;9.960;2022-08-19T04:36:05;49.25;;;29.08;;
14342;SDS011;7255;53.596;9.960;2022-08-19T04:38:33;48.92;;;29.65;;
14342;SDS011;7255;53.596;9.960;2022-08-19T04:40:59;48.63;;;28.40;;
14342;SDS011;7255;53.596;9.960;2022-08-19T04:43:53;39.95;;;27.05;;
14342;SDS011;7255;53.596;9.960;2022-08-19T04:46:19;45.83;;;29.08;;
14342;SDS011;7255;53.596;9.960;2022-08-19T04:48:45;44.88;;;27.73;;
14342;SDS011;7255;53.596;9.960;2022-08-19T04:51:12;45.38;;;29.60;;
14342;SDS011;7255;53.596;9.960;2022-08-19T04:53:40;42.38;;;29.23;;
14342;SDS011;7255;53.596;9.960;2022-08-19T04:56:08;40.80;;;29.75;;
14342;SDS011;7255;53.596;9.960;2022-08-19T04:58:37;42.28;;;28.27;;
14342;SDS011;7255;53.596;9.960;2022-08-19T05:01:06;45.58;;;29.92;;
14342;SDS011;7255;53.596;9.960;2022-08-19T05:03:33;45.92;;;29.25;;
14342;SDS011;7255;53.596;9.960;2022-08-19T05:06:04;53.00;;;29.08;;
14342;SDS011;7255;53.596;9.960;2022-08-19T05:08:32;43.33;;;29.00;;
14342;SDS011;7255;53.596;9.960;2022-08-19T05:11:00;41.75;;;28.80;;
14342;SDS011;7255;53.596;9.960;2022-08-19T05:13:27;40.60;;;26.20;;
14342;SDS011;7255;53.596;9.960;2022-08-19T05:15:54;42.15;;;26.87;;
14342;SDS011;7255;53.596;9.960;2022-08-19T05:18:23;34.28;;;25.58;;
14342;SDS011;7255;53.596;9.960;2022-08-19T05:21:08;36.72;;;24.90;;
14342;SDS011;7255;53.596;9.960;2022-08-19T05:23:54;37.40;;;24.73;;
14342;SDS011;7255;53.596;9.960;2022-08-19T05:26:20;37.22;;;23.73;;
14342;SDS011;7255;53.596;9.960;2022-08-19T05:28:46;34.50;;;23.00;;
14342;SDS011;7255;53.596;9.960;2022-08-19T05:31:13;30.98;;;22.77;;
14342;SDS011;7255;53.596;9.960;2022-08-19T05:33:40;36.10;;;23.60;;
14342;SDS011;7255;53.596;9.960;2022-08-19T05:36:07;35.67;;;23.52;;
14342;SDS011;7255;53.596;9.960;2022-08-19T05:38:34;34.38;;;21.83;;
14342;SDS011;7255;53.596;9.960;2022-08-19T05:41:00;30.52;;;22.52;;
14342;SDS011;7255;53.596;9.960;2022-08-19T05:43:27;32.95;;;23.95;;
14342;SDS011;7255;53.596;9.960;2022-08-19T05:45:53;36.45;;;22.87;;
14342;SDS011;7255;53.596;9.960;2022-08-19T05:48:20;30.35;;;22.40;;
14342;SDS011;7255;53.596;9.960;2022-08-19T05:50:47;48.42;;;29.73;;
14342;SDS011;7255;53.596;9.960;2022-08-19T05:53:15;48.15;;;32.17;;
14342;SDS011;7255;53.596;9.960;2022-08-19T05:55:42;49.55;;;33.28;;
14342;SDS011;7255;53.596;9.960;2022-08-19T05:58:08;57.80;;;36.63;;
14342;SDS011;7255;53.596;9.960;2022-08-19T06:00:35;59.15;;;37.38;;
14342;SDS011;7255;53.596;9.960;2022-08-19T06:03:02;48.05;;;30.37;;
14342;SDS011;7255;53.596;9.960;2022-08-19T06:05:28;49.50;;;30.08;;
14342;SDS011;7255;53.596;9.960;2022-08-19T06:07:56;49.65;;;30.23;;
14342;SDS011;7255;53.596;9.960;2022-08-19T06:10:25;48.22;;;29.77;;
14342;SDS011;7255;53.596;9.960;2022-08-19T06:12:52;47.58;;;29.87;;
14342;SDS011;7255;53.596;9.960;2022-08-19T06:15:18;60.40;;;34.67;;
14342;SDS011;7255;53.596;9.960;2022-08-19T06:17:44;55.83;;;35.38;;
14342;SDS011;7255;53.596;9.960;2022-08-19T06:20:12;59.97;;;36.53;;
14342;SDS011;7255;53.596;9.960;2022-08-19T06:22:40;47.90;;;32.55;;
14342;SDS011;7255;53.596;9.960;2022-08-19T06:25:11;56.45;;;36.75;;
14342;SDS011;7255;53.596;9.960;2022-08-19T06:27:38;46.55;;;31.45;;
14342;SDS011;7255;53.596;9.960;2022-08-19T06:30:05;45.60;;;28.98;;
14342;SDS011;7255;53.596;9.960;2022-08-19T06:32:33;38.50;;;25.77;;
14342;SDS011;7255;53.596;9.960;2022-08-19T06:34:59;33.85;;;23.15;;
14342;SDS011;7255;53.596;9.960;2022-08-19T06:37:25;29.12;;;21.27;;
14342;SDS011;7255;53.596;9.960;2022-08-19T06:39:52;34.45;;;23.05;;
14342;SDS011;7255;53.596;9.960;2022-08-19T06:42:19;36.55;;;22.50;;
14342;SDS011;7255;53.596;9.960;2022-08-19T06:44:46;35.20;;;23.58;;
14342;SDS011;7255;53.596;9.960;2022-08-19T06:47:14;38.72;;;24.70;;
14342;SDS011;7255;53.596;9.960;2022-08-19T06:49:43;32.97;;;23.65;;
14342;SDS011;7255;53.596;9.960;2022-08-19T06:52:09;36.67;;;25.83;;
14342;SDS011;7255;53.596;9.960;2022-08-19T06:54:37;32.88;;;22.80;;
14342;SDS011;7255;53.596;9.960;2022-08-19T06:57:05;35.35;;;24.23;;
14342;SDS011;7255;53.596;9.960;2022-08-19T06:59:35;39.53;;;23.90;;
14342;SDS011;7255;53.596;9.960;2022-08-19T07:02:02;30.83;;;22.40;;
14342;SDS011;7255;53.596;9.960;2022-08-19T07:04:32;31.33;;;19.80;;
14342;SDS011;7255;53.596;9.960;2022-08-19T07:07:02;26.55;;;21.27;;
14342;SDS011;7255;53.596;9.960;2022-08-19T07:09:34;26.12;;;20.17;;
14342;SDS011;7255;53.596;9.960;2022-08-19T07:12:02;25.20;;;18.55;;
14342;SDS011;7255;53.596;9.960;2022-08-19T07:14:31;23.02;;;19.45;;
14342;SDS011;7255;53.596;9.960;2022-08-19T07:17:04;22.75;;;17.37;;
14342;SDS011;7255;53.596;9.960;2022-08-19T07:19:32;22.92;;;16.92;;
14342;SDS011;7255;53.596;9.960;2022-08-19T07:22:00;24.15;;;15.50;;
14342;SDS011;7255;53.596;9.960;2022-08-19T07:24:28;21.58;;;17.58;;
14342;SDS011;7255;53.596;9.960;2022-08-19T07:26:56;21.08;;;15.98;;
14342;SDS011;7255;53.596;9.960;2022-08-19T07:29:28;22.37;;;16.08;;
14342;SDS011;7255;53.596;9.960;2022-08-19T07:31:56;18.55;;;15.75;;
14342;SDS011;7255;53.596;9.960;2022-08-19T07:34:25;17.90;;;14.13;;
14342;SDS011;7255;53.596;9.960;2022-08-19T07:36:53;17.95;;;14.60;;
14342;SDS011;7255;53.596;9.960;2022-08-19T07:39:22;17.98;;;13.73;;
14342;SDS011;7255;53.596;9.960;2022-08-19T07:41:50;17.02;;;13.02;;
14342;SDS011;7255;53.596;9.960;2022-08-19T07:44:17;15.85;;;12.25;;
14342;SDS011;7255;53.596;9.960;2022-08-19T07:46:47;19.73;;;12.35;;
14342;SDS011;7255;53.596;9.960;2022-08-19T07:49:16;14.00;;;12.02;;
14342;SDS011;7255;53.596;9.960;2022-08-19T07:51:46;16.62;;;12.10;;
14342;SDS011;7255;53.596;9.960;2022-08-19T07:54:13;11.32;;;10.23;;
14342;SDS011;7255;53.596;9.960;2022-08-19T07:56:40;13.15;;;9.93;;
14342;SDS011;7255;53.596;9.960;2022-08-19T07:59:06;12.07;;;8.55;;
14342;SDS011;7255;53.596;9.960;2022-08-19T08:01:34;17.37;;;10.20;;
14342;SDS011;7255;53.596;9.960;2022-08-19T08:04:01;10.48;;;9.43;;
14342;SDS011;7255;53.596;9.960;2022-08-19T08:06:46;11.68;;;9.07;;
14342;SDS011;7255;53.596;9.960;2022-08-19T08:09:31;12.37;;;11.07;;
14342;SDS011;7255;53.596;9.960;2022-08-19T08:12:00;15.43;;;9.60;;
14342;SDS011;7255;53.596;9.960;2022-08-19T08:14:30;13.35;;;10.25;;
14342;SDS011;7255;53.596;9.960;2022-08-19T08:16:58;15.25;;;10.25;;
14342;SDS011;7255;53.596;9.960;2022-08-19T08:19:26;11.60;;;10.38;;
14342;SDS011;7255;53.596;9.960;2022-08-19T08:21:55;11.40;;;9.82;;
14342;SDS011;7255;53.596;9.960;2022-08-19T08:24:23;15.65;;;11.98;;
14342;SDS011;7255;53.596;9.960;2022-08-19T08:26:50;13.45;;;10.80;;
14342;SDS011;7255;53.596;9.960;2022-08-19T08:29:17;17.52;;;11.70;;
14342;SDS011;7255;53.596;9.960;2022-08-19T08:31:44;16.35;;;12.45;;
14342;SDS011;7255;53.596;9.960;2022-08-19T08:34:12;16.80;;;12.90;;
14342;SDS011;7255;53.596;9.960;2022-08-19T08:36:40;19.92;;;13.05;;
14342;SDS011;7255;53.596;9.960;2022-08-19T08:39:11;15.90;;;13.20;;
14342;SDS011;7255;53.596;9.960;2022-08-19T08:41:40;18.60;;;14.50;;
14342;SDS011;7255;53.596;9.960;2022-08-19T08:44:13;16.98;;;14.25;;
14342;SDS011;7255;53.596;9.960;2022-08-19T08:46:44;18.15;;;13.95;;
14342;SDS011;7255;53.596;9.960;2022-08-19T08:49:17;18.73;;;15.05;;
14342;SDS011;7255;53.596;9.960;2022-08-19T08:51:51;20.05;;;14.00;;
14342;SDS011;7255;53.596;9.960;2022-08-19T08:54:22;16.65;;;13.62;;
14342;SDS011;7255;53.596;9.960;2022-08-19T08:56:51;17.50;;;13.43;;
14342;SDS011;7255;53.596;9.960;2022-08-19T08:59:20;16.58;;;14.70;;
14342;SDS011;7255;53.596;9.960;2022-08-19T09:01:54;21.27;;;15.63;;
14342;SDS011;7255;53.596;9.960;2022-08-19T09:04:20;20.52;;;16.05;;
14342;SDS011;7255;53.596;9.960;2022-08-19T09:06:49;26.48;;;16.73;;
14342;SDS011;7255;53.596;9.960;2022-08-19T09:09:23;19.42;;;15.05;;
14342;SDS011;7255;53.596;9.960;2022-08-19T09:12:00;18.67;;;14.95;;
14342;SDS011;7255;53.596;9.960;2022-08-19T09:14:37;22.65;;;16.98;;
14342;SDS011;7255;53.596;9.960;2022-08-19T09:17:10;21.27;;;15.15;;
14342;SDS011;7255;53.596;9.960;2022-08-19T09:19:46;21.37;;;14.82;;
14342;SDS011;7255;53.596;9.960;2022-08-19T09:22:16;20.62;;;15.23;;
14342;SDS011;7255;53.596;9.960;2022-08-19T09:24:43;19.23;;;13.27;;
14342;SDS011;7255;53.596;9.960;2022-08-19T09:27:10;17.90;;;13.25;;
14342;SDS011;7255;53.596;9.960;2022-08-19T09:29:36;16.20;;;12.25;;
14342;SDS011;7255;53.596;9.960;2022-08-19T09:32:02;14.25;;;11.75;;
14342;SDS011;7255;53.596;9.960;2022-08-19T09:34:29;14.40;;;12.27;;
14342;SDS011;7255;53.596;9.960;2022-08-19T09:36:56;11.68;;;10.50;;
14342;SDS011;7255;53.596;9.960;2022-08-19T09:39:23;13.52;;;11.77;;
14342;SDS011;7255;53.596;9.960;2022-08-19T09:41:51;15.77;;;11.77;;
14342;SDS011;7255;53.596;9.960;2022-08-19T09:44:17;18.00;;;12.70;;
14342;SDS011;7255;53.596;9.960;2022-08-19T09:46:45;14.35;;;12.75;;
14342;SDS011;7255;53.596;9.960;2022-08-19T09:49:11;14.73;;;11.90;;
14342;SDS011;7255;53.596;9.960;2022-08-19T09:51:38;16.55;;;13.43;;
14342;SDS011;7255;53.596;9.960;2022-08-19T09:54:04;19.95;;;13.73;;
14342;SDS011;7255;53.596;9.960;2022-08-19T09:56:31;18.37;;;14.48;;
14342;SDS011;7255;53.596;9.960;2022-08-19T09:58:59;19.15;;;14.68;;
14342;SDS011;7255;53.596;9.960;2022-08-19T10:01:28;19.87;;;15.27;;
14342;SDS011;7255;53.596;9.960;2022-08-19T10:03:56;18.80;;;14.93;;
14342;SDS011;7255;53.596;9.960;2022-08-19T10:06:25;20.60;;;14.02;;
14342;SDS011;7255;53.596;9.960;2022-08-19T10:08:56;26.33;;;15.80;;
14342;SDS011;7255;53.596;9.960;2022-08-19T10:11:23;16.58;;;14.73;;
14342;SDS011;7255;53.596;9.960;2022-08-19T10:13:49;20.10;;;14.87;;
14342;SDS011;7255;53.596;9.960;2022-08-19T10:16:19;22.02;;;14.85;;
14342;SDS011;7255;53.596;9.960;2022-08-19T10:18:47;17.55;;;15.65;;
14342;SDS011;7255;53.596;9.960;2022-08-19T10:21:14;18.42;;;16.42;;
14342;SDS011;7255;53.596;9.960;2022-08-19T10:23:43;22.33;;;16.73;;
14342;SDS011;7255;53.596;9.960;2022-08-19T10:26:11;18.70;;;16.73;;
14342;SDS011;7255;53.596;9.960;2022-08-19T10:28:39;25.20;;;17.90;;
14342;SDS011;7255;53.596;9.960;2022-08-19T10:31:06;19.48;;;17.00;;
14342;SDS011;7255;53.596;9.960;2022-08-19T10:33:35;22.40;;;17.90;;
14342;SDS011;7255;53.596;9.960;2022-08-19T10:36:04;19.48;;;17.37;;
14342;SDS011;7255;53.596;9.960;2022-08-19T10:38:33;23.92;;;18.00;;
14342;SDS011;7255;53.596;9.960;2022-08-19T10:41:06;24.50;;;17.80;;
14342;SDS011;7255;53.596;9.960;2022-08-19T10:43:33;21.17;;;17.73;;
14342;SDS011;7255;53.596;9.960;2022-08-19T10:46:02;21.52;;;18.15;;
14342;SDS011;7255;53.596;9.960;2022-08-19T10:48:29;21.98;;;17.30;;
14342;SDS011;7255;53.596;9.960;2022-08-19T10:50:58;24.58;;;17.60;;
14342;SDS011;7255;53.596;9.960;2022-08-19T10:53:42;21.77;;;18.37;;
14342;SDS011;7255;53.596;9.960;2022-08-19T10:56:08;21.83;;;17.65;;
14342;SDS011;7255;53.596;9.960;2022-08-19T10:58:52;21.35;;;18.35;;
14342;SDS011;7255;53.596;9.960;2022-08-19T11:01:19;20.77;;;17.62;;
14342;SDS011;7255;53.596;9.960;2022-08-19T11:03:45;22.90;;;16.73;;
14342;SDS011;7255;53.596;9.960;2022-08-19T11:06:13;24.48;;;16.15;;
14342;SDS011;7255;53.596;9.960;2022-08-19T11:08:39;23.77;;;18.33;;
14342;SDS011;7255;53.596;9.960;2022-08-19T11:11:08;19.50;;;16.25;;
14342;SDS011;7255;53.596;9.960;2022-08-19T11:13:35;18.73;;;15.48;;
14342;SDS011;7255;53.596;9.960;2022-08-19T11:16:05;17.60;;;15.10;;
14342;SDS011;7255;53.596;9.960;2022-08-19T11:18:33;20.27;;;14.45;;
14342;SDS011;7255;53.596;9.960;2022-08-19T11:21:05;16.77;;;13.43;;
14342;SDS011;7255;53.596;9.960;2022-08-19T11:23:34;16.12;;;14.38;;
14342;SDS011;7255;53.596;9.960;2022-08-19T11:26:00;16.37;;;14.13;;
14342;SDS011;7255;53.596;9.960;2022-08-19T11:28:27;18.00;;;14.32;;
14342;SDS011;7255;53.596;9.960;2022-08-19T11:30:53;16.40;;;14.63;;
14342;SDS011;7255;53.596;9.960;2022-08-19T11:33:19;19.40;;;14.18;;
14342;SDS011;7255;53.596;9.960;2022-08-19T11:35:46;17.12;;;13.15;;
14342;SDS011;7255;53.596;9.960;2022-08-19T11:38:12;14.87;;;12.48;;
14342;SDS011;7255;53.596;9.960;2022-08-19T11:40:43;14.45;;;12.85;;
14342;SDS011;7255;53.596;9.960;2022-08-19T11:43:14;16.90;;;13.40;;
14342;SDS011;7255;53.596;9.960;2022-08-19T11:45:41;17.42;;;13.35;;
14342;SDS011;7255;53.596;9.960;2022-08-19T11:48:07;15.95;;;14.18;;
14342;SDS011;7255;53.596;9.960;2022-08-19T11:50:34;14.05;;;12.65;;
14342;SDS011;7255;53.596;9.960;2022-08-19T11:53:06;14.43;;;12.93;;
14342;SDS011;7255;53.596;9.960;2022-08-19T11:55:36;14.05;;;12.02;;
14342;SDS011;7255;53.596;9.960;2022-08-19T11:58:05;13.85;;;12.37;;
14342;SDS011;7255;53.596;9.960;2022-08-19T12:00:32;15.70;;;12.85;;
14342;SDS011;7255;53.596;9.960;2022-08-19T12:03:00;12.65;;;10.65;;
14342;SDS011;7255;53.596;9.960;2022-08-19T12:05:26;14.07;;;12.63;;
14342;SDS011;7255;53.596;9.960;2022-08-19T12:07:53;12.40;;;11.10;;
14342;SDS011;7255;53.596;9.960;2022-08-19T12:10:21;13.30;;;12.00;;
14342;SDS011;7255;53.596;9.960;2022-08-19T12:12:48;14.18;;;12.30;;
14342;SDS011;7255;53.596;9.960;2022-08-19T12:15:16;15.70;;;13.18;;
14342;SDS011;7255;53.596;9.960;2022-08-19T12:17:42;13.93;;;12.40;;
14342;SDS011;7255;53.596;9.960;2022-08-19T12:20:10;12.43;;;11.23;;
14342;SDS011;7255;53.596;9.960;2022-08-19T12:22:38;13.77;;;12.20;;
14342;SDS011;7255;53.596;9.960;2022-08-19T12:25:06;15.18;;;11.68;;
14342;SDS011;7255;53.596;9.960;2022-08-19T12:27:34;13.82;;;11.52;;
14342;SDS011;7255;53.596;9.960;2022-08-19T12:30:01;12.75;;;11.43;;
14342;SDS011;7255;53.596;9.960;2022-08-19T12:32:29;12.60;;;11.40;;
14342;SDS011;7255;53.596;9.960;2022-08-19T12:34:55;12.98;;;11.70;;
14342;SDS011;7255;53.596;9.960;2022-08-19T12:37:22;12.23;;;10.95;;
14342;SDS011;7255;53.596;9.960;2022-08-19T12:39:48;12.48;;;10.98;;
14342;SDS011;7255;53.596;9.960;2022-08-19T12:42:15;11.07;;;9.98;;
14342;SDS011;7255;53.596;9.960;2022-08-19T12:44:42;12.32;;;11.12;;
14342;SDS011;7255;53.596;9.960;2022-08-19T12:47:09;11.48;;;10.38;;
14342;SDS011;7255;53.596;9.960;2022-08-19T12:49:40;12.75;;;11.43;;
14342;SDS011;7255;53.596;9.960;2022-08-19T12:52:07;12.50;;;10.77;;
14342;SDS011;7255;53.596;9.960;2022-08-19T12:54:34;11.77;;;10.57;;
14342;SDS011;7255;53.596;9.960;2022-08-19T12:57:04;12.02;;;10.82;;
14342;SDS011;7255;53.596;9.960;2022-08-19T12:59:32;12.18;;;10.10;;
14342;SDS011;7255;53.596;9.960;2022-08-19T13:01:59;10.82;;;9.75;;
14342;SDS011;7255;53.596;9.960;2022-08-19T13:04:26;10.77;;;9.43;;
14342;SDS011;7255;53.596;9.960;2022-08-19T13:06:53;11.60;;;10.30;;
14342;SDS011;7255;53.596;9.960;2022-08-19T13:09:19;11.27;;;10.20;;
14342;SDS011;7255;53.596;9.960;2022-08-19T13:11:46;11.07;;;10.07;;
14342;SDS011;7255;53.596;9.960;2022-08-19T13:14:12;10.77;;;9.77;;
14342;SDS011;7255;53.596;9.960;2022-08-19T13:16:38;11.52;;;10.48;;
14342;SDS011;7255;53.596;9.960;2022-08-19T13:19:05;11.30;;;10.30;;
14342;SDS011;7255;53.596;9.960;2022-08-19T13:21:32;10.18;;;9.18;;
14342;SDS011;7255;53.596;9.960;2022-08-19T13:24:00;11.18;;;10.07;;
14342;SDS011;7255;53.596;9.960;2022-08-19T13:26:26;10.48;;;9.32;;
14342;SDS011;7255;53.596;9.960;2022-08-19T13:28:53;10.73;;;9.73;;
14342;SDS011;7255;53.596;9.960;2022-08-19T13:31:39;10.32;;;9.32;;
14342;SDS011;7255;53.596;9.960;2022-08-19T13:34:29;10.82;;;9.70;;
14342;SDS011;7255;53.596;9.960;2022-08-19T13:37:00;10.75;;;9.75;;
14342;SDS011;7255;53.596;9.960;2022-08-19T13:39:30;11.77;;;10.77;;
14342;SDS011;7255;53.596;9.960;2022-08-19T13:41:59;10.63;;;9.63;;
14342;SDS011;7255;53.596;9.960;2022-08-19T13:44:26;11.85;;;10.65;;
14342;SDS011;7255;53.596;9.960;2022-08-19T13:46:59;13.62;;;10.45;;
14342;SDS011;7255;53.596;9.960;2022-08-19T13:49:30;12.05;;;11.05;;
14342;SDS011;7255;53.596;9.960;2022-08-19T13:51:57;11.32;;;10.23;;
14342;SDS011;7255;53.596;9.960;2022-08-19T13:54:23;10.00;;;9.20;;
14342;SDS011;7255;53.596;9.960;2022-08-19T13:56:51;11.43;;;10.52;;
14342;SDS011;7255;53.596;9.960;2022-08-19T13:59:17;9.98;;;9.18;;
14342;SDS011;7255;53.596;9.960;2022-08-19T14:01:44;10.95;;;9.95;;
14342;SDS011;7255;53.596;9.960;2022-08-19T14:04:10;11.50;;;10.30;;
14342;SDS011;7255;53.596;9.960;2022-08-19T14:06:36;11.50;;;10.50;;
14342;SDS011;7255;53.596;9.960;2022-08-19T14:09:03;11.63;;;10.57;;
14342;SDS011;7255;53.596;9.960;2022-08-19T14:11:30;11.65;;;10.50;;
14342;SDS011;7255;53.596;9.960;2022-08-19T14:13:58;13.25;;;11.95;;
14342;SDS011;7255;53.596;9.960;2022-08-19T14:16:24;13.15;;;11.95;;
14342;SDS011;7255;53.596;9.960;2022-08-19T14:18:52;14.07;;;12.65;;
14342;SDS011;7255;53.596;9.960;2022-08-19T14:21:19;12.43;;;11.18;;
14342;SDS011;7255;53.596;9.960;2022-08-19T14:23:47;13.65;;;12.40;;
14342;SDS011;7255;53.596;9.960;2022-08-19T14:26:14;15.35;;;13.82;;
14342;SDS011;7255;53.596;9.960;2022-08-19T14:28:42;14.48;;;13.13;;
14342;SDS011;7255;53.596;9.960;2022-08-19T14:31:11;14.30;;;13.07;;
14342;SDS011;7255;53.596;9.960;2022-08-19T14:33:38;15.20;;;13.80;;
14342;SDS011;7255;53.596;9.960;2022-08-19T14:36:05;15.65;;;14.02;;
14342;SDS011;7255;53.596;9.960;2022-08-19T14:38:32;13.70;;;12.57;;
14342;SDS011;7255;53.596;9.960;2022-08-19T14:41:05;12.82;;;11.63;;
14342;SDS011;7255;53.596;9.960;2022-08-19T14:43:33;13.88;;;12.57;;